Time;durP1;ratioP1;P1;durP2;ratioP2;P2;SDS_P1;SDS_P2;PMS_P1;PMS_P2;Temp;Humidity;BMP_temperature;BMP_pressure;BME280_temperature;BME280_humidity;BME280_pressure;Samples;Min_cycle;Max_cycle;Signal;HPM_P1;HPM_P2
2022/06/20 00:02:47;;;;;;;747.97;708.50;;;23.30;99.90;;;23.59;92.67;99714.66;5011508;28;20226;-65
2022/06/20 00:05:37;;;;;;;734.20;694.65;;;23.30;99.90;;;23.61;92.44;99720.81;5015702;28;20194;-66
2022/06/20 00:08:25;;;;;;;716.50;678.22;;;23.40;99.90;;;23.60;92.33;99725.34;5017804;28;20201;-65
2022/06/20 00:11:21;;;;;;;718.80;680.70;;;23.20;99.90;;;23.55;91.96;99730.13;5015608;28;20210;-64
2022/06/20 00:14:20;;;;;;;723.53;684.60;;;23.20;99.90;;;23.42;92.65;99715.53;5015330;28;20226;-64
2022/06/20 00:17:14;;;;;;;738.45;697.40;;;22.90;99.90;;;23.48;92.17;99712.50;5019193;28;20201;-65
2022/06/20 00:20:04;;;;;;;728.88;687.70;;;23.10;99.90;;;23.49;92.13;99727.75;5035147;28;20221;-65
2022/06/20 00:22:53;;;;;;;723.90;685.72;;;;;;;23.37;92.31;99724.81;5032301;28;20238;-65
2022/06/20 00:25:41;;;;;;;750.33;709.42;;;23.30;99.90;;;23.35;92.82;99722.19;5029840;28;20203;-65
2022/06/20 00:28:31;;;;;;;757.20;715.92;;;22.60;99.90;;;23.29;92.77;99725.22;5023262;28;20202;-65
2022/06/20 00:31:19;;;;;;;763.92;722.38;;;;;;;23.30;92.39;99714.34;5022190;28;20233;-64
2022/06/20 00:34:10;;;;;;;793.25;749.92;;;22.80;99.90;;;23.27;92.97;99708.25;5029794;28;20277;-64
2022/06/20 00:36:58;;;;;;;824.90;780.22;;;;;;;23.19;93.22;99703.28;5040286;28;20210;-64
2022/06/20 00:39:49;;;;;;;814.22;769.15;;;23.00;99.90;;;23.16;93.77;99708.84;5021330;28;20215;-65
2022/06/20 00:42:38;;;;;;;833.35;788.20;;;;;;;23.17;93.62;99710.59;5010213;28;20245;-65
2022/06/20 00:45:28;;;;;;;886.80;837.85;;;23.10;99.90;;;23.01;94.58;99701.59;5007612;28;20203;-65
2022/06/20 00:48:25;;;;;;;958.78;904.13;;;22.80;99.90;;;22.97;95.05;99722.44;5043351;28;20217;-65
2022/06/20 00:51:25;;;;;;;950.70;896.70;;;22.80;99.90;;;23.17;94.37;99752.88;5016547;28;20206;-65
2022/06/20 00:54:16;;;;;;;877.55;830.08;;;;;;;23.09;94.67;99741.63;5008944;28;20215;-64
2022/06/20 00:57:14;;;;;;;865.63;818.45;;;22.80;99.90;;;23.06;94.20;99737.25;5014085;28;20207;-65
2022/06/20 01:00:11;;;;;;;873.35;826.95;;;22.70;99.90;;;22.92;94.86;99715.56;5038636;28;20228;-64
2022/06/20 01:03:20;;;;;;;826.67;781.05;;;22.70;99.90;;;22.90;95.00;99715.63;5027764;28;20240;-64
2022/06/20 01:06:16;;;;;;;813.55;768.53;;;22.60;99.90;;;22.88;94.96;99725.63;5019913;28;20207;-64
2022/06/20 01:09:09;;;;;;;818.33;775.03;;;22.60;99.90;;;22.87;95.19;99736.50;5033472;28;20536;-65
2022/06/20 01:12:02;;;;;;;836.08;790.17;;;22.60;99.90;;;22.84;95.71;99756.41;5031660;28;20219;-64
2022/06/20 01:14:51;;;;;;;848.40;802.15;;;;;;;22.73;96.06;99774.03;5036419;28;20222;-65
2022/06/20 01:17:39;;;;;;;892.38;843.45;;;22.60;99.90;;;22.59;96.60;99763.97;5006188;28;20560;-64
2022/06/20 01:20:32;;;;;;;953.65;896.40;;;22.30;99.90;;;22.54;96.93;99764.22;5018284;28;20209;-63
2022/06/20 01:23:52;;;;;;;912.95;862.80;;;22.30;99.90;;;22.55;97.45;99783.94;5010384;28;20242;-65
2022/06/20 01:26:45;;;;;;;868.83;821.50;;;;;;;22.53;97.18;99796.63;5028551;28;20211;-64
2022/06/20 01:29:33;;;;;;;840.15;794.30;;;22.40;99.90;;;22.48;96.93;99794.16;5034017;28;20207;-64
2022/06/20 01:32:21;;;;;;;841.05;795.83;;;22.30;99.90;;;22.34;97.65;99799.34;5030215;28;20241;-64
2022/06/20 01:37:23;;;;;;;846.40;801.88;;;22.10;99.90;;;22.38;97.96;99818.94;5024718;28;20198;-65
2022/06/20 01:38:21;;;;;;;867.90;820.45;;;;;;;22.25;98.69;99815.97;5028574;28;20556;-65
2022/06/20 01:44:18;;;;;;;885.92;837.22;;;21.80;99.90;;;22.17;99.45;99862.13;5025830;28;20230;-64
2022/06/20 01:47:06;;;;;;;885.55;838.08;;;21.70;99.90;;;22.13;99.79;99898.22;5020308;28;20206;-65
2022/06/20 01:50:00;;;;;;;902.67;853.92;;;21.70;99.90;;;22.04;99.83;99922.84;5042028;28;20219;-65
2022/06/20 01:52:49;;;;;;;892.42;843.78;;;22.00;99.90;;;22.03;99.90;99924.69;5035415;28;20220;-65
2022/06/20 01:55:37;;;;;;;875.83;829.17;;;;;;;22.01;99.67;99910.38;5050589;28;20218;-65
2022/06/20 01:58:33;;;;;;;871.63;824.05;;;23.00;99.90;;;22.02;99.68;99932.78;5019389;28;20214;-64
2022/06/20 02:01:21;;;;;;;874.88;827.30;;;;;;;21.90;100.00;99936.91;5042700;28;20206;-65
2022/06/20 02:04:18;;;;;;;885.10;836.17;;;21.60;99.90;;;21.83;100.00;99940.81;5018686;28;20248;-65
2022/06/20 02:07:09;;;;;;;871.88;824.50;;;21.40;99.90;;;21.71;100.00;99963.78;5027560;28;20650;-64
2022/06/20 02:09:59;;;;;;;883.03;834.70;;;;;;;21.64;100.00;99988.34;5016351;28;20218;-65
2022/06/20 02:12:49;;;;;;;887.53;839.33;;;21.50;99.90;;;21.57;100.00;99993.09;5036348;28;20231;-64
2022/06/20 02:15:38;;;;;;;887.88;838.90;;;21.10;99.90;;;21.55;100.00;99992.28;5027998;28;20565;-64
2022/06/20 02:18:31;;;;;;;890.40;841.47;;;21.30;99.90;;;21.35;100.00;99973.44;5016974;28;20221;-65
2022/06/20 02:21:26;;;;;;;900.40;848.30;;;21.00;99.90;;;21.21;100.00;99962.38;5020840;28;20577;-65
2022/06/20 02:24:21;;;;;;;895.90;836.88;;;20.90;99.90;;;21.12;100.00;99978.88;5016972;28;20225;-64
2022/06/20 02:27:39;;;;;;;884.42;827.03;;;20.50;99.90;;;21.08;100.00;99981.69;5039769;28;20207;-64
2022/06/20 02:30:29;;;;;;;888.05;828.92;;;;;;;21.03;100.00;99974.75;5024833;28;20210;-65
2022/06/20 02:33:25;;;;;;;883.50;824.72;;;20.90;99.90;;;20.78;100.00;99964.97;5030140;28;20575;-65
2022/06/20 02:36:14;;;;;;;884.58;825.97;;;20.50;99.90;;;20.74;100.00;99976.78;5022095;28;20215;-64
2022/06/20 02:39:03;;;;;;;878.08;819.97;;;20.40;99.90;;;20.77;100.00;99960.53;5037292;28;20705;-65
2022/06/20 02:42:00;;;;;;;875.55;817.55;;;20.30;99.90;;;20.49;100.00;99943.75;5024134;28;20219;-64
2022/06/20 02:44:49;;;;;;;861.53;805.45;;;20.10;99.90;;;20.25;100.00;99909.78;5050454;28;20717;-64
2022/06/20 02:47:49;;;;;;;859.13;802.40;;;20.00;99.90;;;20.21;100.00;99908.16;5026876;28;20214;-64
2022/06/20 02:50:45;;;;;;;859.58;802.40;;;20.00;99.90;;;20.21;100.00;99922.44;5014805;28;20201;-65
2022/06/20 02:53:42;;;;;;;852.40;795.95;;;19.80;99.90;;;20.09;100.00;99918.44;5020481;28;20198;-64
2022/06/20 02:56:38;;;;;;;852.22;794.40;;;19.90;99.90;;;20.07;100.00;99932.84;5020382;28;20206;-65
2022/06/20 02:59:33;;;;;;;845.83;790.25;;;19.70;99.90;;;19.91;100.00;99920.94;5042558;28;20209;-65
2022/06/20 03:02:27;;;;;;;848.08;791.67;;;19.70;99.90;;;19.91;100.00;99912.88;5034481;28;20674;-65
2022/06/20 03:05:15;;;;;;;849.42;791.97;;;;;;;19.87;100.00;99921.97;5024233;28;20619;-64
2022/06/20 03:08:04;;;;;;;852.53;794.45;;;19.60;99.90;;;19.79;100.00;99935.66;5016198;28;20584;-65
2022/06/20 03:10:54;;;;;;;839.95;783.47;;;19.40;99.90;;;19.85;100.00;99964.09;5025850;28;20222;-64
2022/06/20 03:13:43;;;;;;;835.33;779.33;;;;;;;19.76;100.00;99976.91;5017781;28;20206;-65
2022/06/20 03:16:32;;;;;;;840.25;783.13;;;;;;;19.78;100.00;99995.63;5019149;28;20202;-65
2022/06/20 03:19:27;;;;;;;846.75;789.20;;;19.40;99.90;;;19.80;100.00;100010.75;5018154;28;20210;-65
2022/06/20 03:22:22;;;;;;;844.95;787.60;;;20.00;99.90;;;19.64;100.00;100016.69;5020976;28;20234;-65
2022/06/20 03:25:14;;;;;;;840.22;782.60;;;19.60;99.90;;;19.74;100.00;100032.44;5018470;28;20245;-65
2022/06/20 03:28:03;;;;;;;837.97;781.45;;;;;;;19.73;100.00;100028.00;5019025;28;20240;-65
2022/06/20 03:31:12;;;;;;;837.00;780.05;;;19.80;99.90;;;19.66;100.00;100039.88;5008317;28;20227;-65
2022/06/20 03:34:00;;;;;;;828.03;771.55;;;;;;;19.61;100.00;100044.50;5008715;28;20221;-65
2022/06/20 03:36:49;;;;;;;836.30;779.22;;;19.50;99.90;;;19.61;100.00;100039.16;5032643;28;20210;-65
2022/06/20 03:39:38;;;;;;;830.75;773.80;;;;;;;19.48;100.00;100053.84;5018631;28;20222;-65
2022/06/20 03:42:27;;;;;;;832.00;775.05;;;;;;;19.61;100.00;100076.69;5008223;28;20230;-65
2022/06/20 03:45:17;;;;;;;825.92;770.70;;;19.50;99.90;;;19.69;100.00;100077.31;5034799;28;20257;-65
2022/06/20 03:48:22;;;;;;;827.75;771.78;;;19.60;99.90;;;19.76;100.00;100086.03;5033928;28;20210;-65
2022/06/20 03:51:20;;;;;;;834.38;776.72;;;19.50;99.90;;;19.63;100.00;100071.28;5016418;28;20230;-64
2022/06/20 03:54:30;;;;;;;825.88;770.22;;;19.50;99.90;;;19.53;100.00;100070.72;5026370;28;20198;-66
2022/06/20 03:57:52;;;;;;;824.90;768.35;;;19.40;99.90;;;19.59;100.00;100075.00;5031567;28;20209;-64
2022/06/20 04:00:57;;;;;;;826.65;769.33;;;19.50;99.90;;;19.65;100.00;100082.84;5015813;28;20666;-65
2022/06/20 04:03:55;;;;;;;815.75;760.22;;;19.90;99.90;;;19.65;100.00;100074.78;5045561;28;20207;-65
2022/06/20 04:06:57;;;;;;;821.30;765.00;;;19.50;99.90;;;19.72;100.00;100092.44;5021110;28;20211;-65
2022/06/20 04:13:39;;;;;;;813.38;757.75;;;19.50;99.90;;;19.75;100.00;100076.22;5034663;28;20249;-64
2022/06/20 04:16:51;;;;;;;809.28;753.38;;;19.20;99.90;;;19.86;100.00;100081.22;5047834;28;20563;-64
2022/06/20 04:19:40;;;;;;;811.42;756.05;;;19.00;99.90;;;19.85;100.00;100074.09;5018584;28;20547;-65
2022/06/20 04:22:37;;;;;;;819.78;763.63;;;19.60;99.90;;;19.76;100.00;100075.31;5031215;28;20236;-65
2022/06/20 04:25:40;;;;;;;814.90;758.67;;;19.60;99.90;;;19.77;100.00;100074.38;5011121;28;20218;-64
2022/06/20 04:28:42;;;;;;;816.22;759.50;;;19.60;99.90;;;19.86;100.00;100098.19;5025903;28;20214;-65
2022/06/20 04:31:47;;;;;;;823.35;765.70;;;19.60;99.90;;;19.95;100.00;100110.44;5011435;28;20226;-65
2022/06/20 04:34:49;;;;;;;816.55;760.63;;;19.70;99.90;;;19.76;100.00;100103.00;5032696;28;20202;-65
2022/06/20 04:37:59;;;;;;;823.75;767.30;;;19.90;99.90;;;19.99;100.00;100133.56;5034133;28;20217;-65
2022/06/20 04:41:13;;;;;;;823.67;766.58;;;19.50;99.90;;;20.12;100.00;100151.88;5019633;28;20210;-65
2022/06/20 04:44:17;;;;;;;823.03;767.08;;;19.80;99.90;;;20.05;100.00;100144.06;5047107;28;20209;-65
2022/06/20 04:47:32;;;;;;;819.80;763.63;;;19.80;99.90;;;20.18;100.00;100149.91;5034200;28;20208;-65
2022/06/20 04:50:24;;;;;;;824.28;768.10;;;19.90;99.90;;;20.37;100.00;100178.72;5025017;28;20211;-65
2022/06/20 04:53:33;;;;;;;828.58;771.65;;;20.00;99.90;;;20.33;100.00;100165.47;5021111;28;20230;-65
2022/06/20 04:56:28;;;;;;;829.13;772.40;;;20.30;99.90;;;20.33;100.00;100157.41;5061568;28;20210;-65
2022/06/20 04:59:29;;;;;;;834.47;777.88;;;20.10;99.90;;;20.36;100.00;100157.31;5035317;28;20210;-65
2022/06/20 05:02:22;;;;;;;822.00;766.65;;;20.10;99.90;;;20.46;100.00;100169.50;5030623;28;20229;-65
2022/06/20 05:05:18;;;;;;;835.55;778.45;;;20.20;99.90;;;20.60;100.00;100193.19;5008542;28;20227;-65
2022/06/20 05:08:11;;;;;;;831.95;776.38;;;20.20;99.90;;;20.58;100.00;100185.19;5035663;28;20229;-67
2022/06/20 05:11:16;;;;;;;837.22;780.88;;;20.30;99.90;;;20.68;100.00;100197.34;5029237;28;20679;-65
2022/06/20 05:14:34;;;;;;;834.08;777.60;;;20.30;99.90;;;20.68;100.00;100212.59;5038129;28;20210;-65
2022/06/20 05:17:27;;;;;;;838.45;781.90;;;20.40;99.90;;;20.65;100.00;100213.59;5023153;28;20211;-65
2022/06/20 05:20:25;;;;;;;844.10;787.17;;;20.40;99.90;;;20.73;100.00;100224.06;5043855;28;20590;-65
2022/06/20 05:23:41;;;;;;;845.22;788.40;;;20.40;99.90;;;20.92;100.00;100249.38;5030330;28;20225;-64
2022/06/20 05:26:38;;;;;;;848.45;791.38;;;20.60;99.90;;;20.99;100.00;100255.41;5050894;28;20226;-65
2022/06/20 05:29:30;;;;;;;857.47;799.53;;;21.00;99.90;;;21.09;100.00;100273.84;5038364;28;20201;-65
2022/06/20 05:32:41;;;;;;;847.13;791.95;;;20.70;99.90;;;21.20;100.00;100268.06;5024104;28;20223;-65
2022/06/20 05:35:42;;;;;;;843.10;788.58;;;20.70;99.90;;;21.30;100.00;100271.31;5037922;28;20972;-65
2022/06/20 05:38:46;;;;;;;850.92;795.78;;;20.90;99.90;;;21.23;100.00;100257.22;5025222;28;20218;-65
2022/06/20 05:41:35;;;;;;;854.72;799.50;;;;;;;21.43;99.20;100260.97;5024860;28;20229;-65
2022/06/20 05:44:23;;;;;;;862.03;806.88;;;;;;;21.21;98.61;100229.47;5028156;28;20198;-64
2022/06/20 05:47:24;;;;;;;859.70;805.10;;;21.20;99.90;;;21.28;98.22;100224.78;5055809;28;20195;-65
2022/06/20 05:50:30;;;;;;;865.78;810.38;;;20.90;99.90;;;21.47;98.50;100241.06;5036872;28;20213;-65
2022/06/20 05:53:42;;;;;;;869.05;812.80;;;20.80;99.90;;;21.42;96.82;100229.63;5046827;28;20230;-65
2022/06/20 05:57:01;;;;;;;872.67;816.67;;;21.10;99.90;;;21.41;96.66;100234.13;5024113;28;20202;-65
2022/06/20 06:00:06;;;;;;;868.38;813.03;;;21.20;99.90;;;21.49;97.25;100234.69;5023945;28;20202;-65
2022/06/20 06:03:34;;;;;;;871.65;816.50;;;20.90;99.90;;;21.44;98.01;100242.06;5038396;28;20218;-64
2022/06/20 06:06:37;;;;;;;873.75;818.13;;;21.20;99.90;;;21.55;97.87;100256.00;5043735;28;20223;-65
2022/06/20 06:09:32;;;;;;;874.95;819.15;;;21.60;99.90;;;21.56;97.10;100260.44;5038212;28;20201;-64
2022/06/20 06:12:48;;;;;;;879.20;823.15;;;21.20;99.90;;;21.55;97.49;100247.03;5022150;28;20218;-64
2022/06/20 06:16:46;;;;;;;877.63;821.63;;;21.30;99.90;;;21.65;96.34;100241.22;5009541;28;20226;-65
2022/06/20 06:19:13;;;;;;;883.97;828.17;;;21.80;99.90;;;21.84;96.57;100259.34;5037238;28;20210;-65
2022/06/20 06:22:15;;;;;;;881.35;826.53;;;21.00;99.90;;;21.55;97.33;100239.84;5022672;28;20222;-64
2022/06/20 06:25:43;;;;;;;852.47;808.20;;;21.20;99.90;;;21.44;100.00;100251.97;5051005;28;20209;-64
2022/06/20 06:28:32;;;;;;;848.22;805.03;;;21.30;99.90;;;21.48;100.00;100273.31;4950863;28;20600;-65
2022/06/20 06:31:34;;;;;;;830.00;787.00;;;21.20;99.90;;;21.18;100.00;100263.66;5035665;28;20577;-64
2022/06/20 06:34:58;;;;;;;807.08;765.97;;;21.50;99.90;;;21.24;100.00;100285.00;5036234;28;20202;-65
2022/06/20 06:38:29;;;;;;;824.45;782.30;;;21.40;99.90;;;21.54;100.00;100324.19;5022798;28;20206;-64
2022/06/20 06:41:28;;;;;;;827.55;784.97;;;21.30;99.90;;;21.35;100.00;100310.56;5036104;28;20210;-64
2022/06/20 06:44:36;;;;;;;829.50;786.65;;;21.10;99.90;;;21.71;100.00;100343.28;5008981;28;20211;-64
2022/06/20 06:47:44;;;;;;;836.90;793.72;;;21.90;99.90;;;22.05;100.00;100360.84;5023143;28;20226;-64
2022/06/20 06:50:43;;;;;;;827.25;784.75;;;22.20;99.90;;;22.24;100.00;100394.22;5022387;28;20198;-64
2022/06/20 06:53:54;;;;;;;828.50;786.20;;;21.90;99.90;;;22.27;100.00;100380.63;4998328;28;20574;-64
2022/06/20 06:57:14;;;;;;;828.25;785.85;;;22.10;99.90;;;22.38;100.00;100379.31;5036859;28;20199;-64
2022/06/20 07:00:05;;;;;;;841.92;799.22;;;22.20;99.90;;;22.06;100.00;100337.47;5036875;28;20203;-64
2022/06/20 07:03:10;;;;;;;863.53;818.33;;;22.30;99.90;;;22.04;100.00;100351.88;5036548;28;20237;-65
2022/06/20 07:06:03;;;;;;;863.53;818.67;;;22.10;99.90;;;22.26;100.00;100384.25;5023066;28;20217;-64
2022/06/20 07:09:25;;;;;;;860.95;815.85;;;21.80;99.90;;;22.45;100.00;100364.66;5029686;28;20205;-64
2022/06/20 07:12:32;;;;;;;884.70;838.08;;;21.80;99.90;;;22.27;100.00;100294.44;5036864;28;20233;-64
2022/06/20 07:15:23;;;;;;;876.03;831.13;;;21.70;99.90;;;22.27;100.00;100313.28;5049339;28;20213;-64
2022/06/20 07:18:50;;;;;;;873.90;828.03;;;22.50;99.90;;;22.12;100.00;100310.34;5036649;28;20198;-65
2022/06/20 07:21:42;;;;;;;879.38;833.90;;;22.30;99.90;;;22.25;100.00;100389.72;5036516;28;20226;-64
2022/06/20 07:24:34;;;;;;;867.20;821.55;;;22.00;99.90;;;22.17;100.00;100429.53;5022699;28;20194;-64
2022/06/20 07:27:29;;;;;;;880.95;834.47;;;22.50;99.90;;;21.87;100.00;100394.72;5022856;28;20225;-64
2022/06/20 07:30:22;;;;;;;868.22;822.45;;;21.80;99.90;;;21.91;100.00;100427.78;5035912;28;20194;-64
2022/06/20 07:33:21;;;;;;;874.83;829.08;;;21.90;99.90;;;21.56;100.00;100386.91;5022700;28;20222;-64
2022/06/20 07:36:13;;;;;;;858.13;813.33;;;21.90;99.90;;;21.75;100.00;100407.75;5023053;28;20229;-64
2022/06/20 07:39:10;;;;;;;854.88;810.40;;;22.00;99.90;;;21.55;100.00;100378.88;5035531;28;20663;-64
2022/06/20 07:42:31;;;;;;;868.67;823.33;;;22.30;99.90;;;21.68;100.00;100432.19;5021002;28;20218;-64
2022/06/20 07:45:38;;;;;;;871.95;825.72;;;21.70;99.90;;;21.55;100.00;100430.03;5035148;28;20219;-64
2022/06/20 07:48:33;;;;;;;855.33;810.55;;;21.40;99.90;;;21.34;100.00;100386.81;5024135;28;20205;-64
2022/06/20 07:51:29;;;;;;;838.08;795.25;;;21.20;99.90;;;21.07;100.00;100347.41;5035940;28;20202;-64
2022/06/20 07:54:27;;;;;;;832.15;788.55;;;21.10;99.90;;;21.12;100.00;100364.28;5021969;28;20601;-64
2022/06/20 07:57:30;;;;;;;837.88;794.70;;;21.30;99.90;;;21.03;100.00;100386.97;5021273;28;20236;-64
2022/06/20 08:00:22;;;;;;;848.03;805.22;;;21.10;99.90;;;20.99;100.00;100411.34;5010941;28;20709;-64
2022/06/20 08:03:38;;;;;;;844.55;800.85;;;21.40;99.90;;;21.20;100.00;100424.03;5010370;28;20225;-64
2022/06/20 08:06:54;;;;;;;882.80;836.10;;;21.30;99.90;;;21.23;100.00;100394.38;5053035;28;20221;-64
2022/06/20 08:10:20;;;;;;;882.75;836.80;;;21.30;99.90;;;21.05;100.00;100330.47;5038266;28;20217;-64
2022/06/20 08:13:37;;;;;;;879.63;833.88;;;21.00;99.90;;;21.32;100.00;100366.28;5034708;28;20225;-64
2022/06/20 08:16:29;;;;;;;879.20;833.30;;;21.30;99.90;;;21.54;100.00;100407.63;5025933;28;20199;-64
2022/06/20 08:19:17;;;;;;;891.47;845.25;;;;;;;21.52;100.00;100413.97;5030806;28;20207;-64
2022/06/20 08:22:29;;;;;;;880.20;834.13;;;21.50;99.90;;;21.58;100.00;100398.50;5024448;28;20572;-64
2022/06/20 08:25:37;;;;;;;884.20;838.75;;;21.60;99.90;;;21.72;100.00;100415.00;5025041;28;20706;-64
2022/06/20 08:28:34;;;;;;;885.50;838.85;;;21.70;99.90;;;21.93;100.00;100434.00;5025754;28;20202;-64
2022/06/20 08:31:38;;;;;;;883.13;836.83;;;21.30;99.90;;;21.44;100.00;100321.91;5037298;28;20671;-64
2022/06/20 08:34:41;;;;;;;885.38;839.08;;;21.70;99.90;;;21.97;100.00;100392.53;5025650;28;20198;-64
2022/06/20 08:37:51;;;;;;;873.63;828.05;;;21.90;99.90;;;22.12;100.00;100394.72;5039077;28;20209;-64
2022/06/20 08:41:18;;;;;;;881.65;835.35;;;21.90;99.90;;;21.96;100.00;100348.59;5024331;28;20206;-64
2022/06/20 08:44:07;;;;;;;875.83;830.70;;;;;;;22.22;100.00;100406.00;5052493;28;20198;-64
2022/06/20 08:47:32;;;;;;;877.45;831.45;;;22.20;99.90;;;22.33;100.00;100418.09;5051239;28;20233;-65
2022/06/20 08:50:58;;;;;;;860.55;815.60;;;22.30;99.90;;;22.38;100.00;100409.84;5042088;28;20202;-64
2022/06/20 08:54:01;;;;;;;875.65;829.88;;;22.80;99.90;;;22.70;100.00;100418.44;5042628;28;20202;-64
2022/06/20 08:57:00;;;;;;;879.50;833.55;;;22.90;99.90;;;22.61;100.00;100395.44;5025430;28;20202;-64
2022/06/20 09:00:09;;;;;;;887.42;840.22;;;23.10;99.90;;;23.49;100.00;100447.47;5052022;28;20205;-64
2022/06/20 09:03:30;;;;;;;890.53;843.00;;;23.50;99.90;;;23.83;100.00;100400.97;5025986;28;20221;-65
2022/06/20 09:06:43;;;;;;;887.85;840.90;;;23.50;99.90;;;23.37;100.00;100324.72;5051773;28;20198;-64
2022/06/20 09:09:56;;;;;;;899.85;852.03;;;23.90;99.90;;;23.29;100.00;100327.78;5038159;28;20206;-64
2022/06/20 09:13:18;;;;;;;915.40;866.65;;;23.80;99.90;;;23.70;100.00;100379.06;5036990;28;20234;-64
2022/06/20 09:16:17;;;;;;;927.47;878.08;;;24.10;99.90;;;23.69;100.00;100363.81;5038486;28;20202;-64
2022/06/20 09:19:34;;;;;;;921.85;872.65;;;23.60;99.90;;;23.94;100.00;100394.13;5024614;28;20202;-64
2022/06/20 09:22:44;;;;;;;937.55;887.53;;;24.10;99.90;;;24.06;100.00;100395.38;5037832;28;20225;-64
2022/06/20 09:25:36;;;;;;;947.75;897.00;;;;;;;23.85;98.00;100353.16;5053130;28;20197;-64
2022/06/20 09:28:48;;;;;;;939.17;888.75;;;24.10;99.90;;;23.80;100.00;100372.28;5006241;28;20609;-64
2022/06/20 09:31:57;;;;;;;951.92;900.80;;;24.30;99.90;;;23.91;99.13;100356.47;5023780;28;20228;-64
2022/06/20 09:35:12;;;;;;;966.13;913.88;;;24.30;99.90;;;24.95;98.50;100431.66;5027705;28;20690;-64
2022/06/20 09:38:49;;;;;;;961.53;909.90;;;24.70;99.90;;;25.05;96.80;100359.91;5028092;28;20202;-63
2022/06/20 09:42:06;;;;;;;959.75;908.40;;;25.00;99.90;;;24.69;97.75;100331.03;5021926;28;20229;-64
2022/06/20 09:45:18;;;;;;;958.38;906.80;;;24.60;99.90;;;24.97;99.02;100383.75;5024351;28;20213;-64
2022/06/20 09:48:17;;;;;;;964.17;911.83;;;25.30;99.90;;;25.06;100.00;100397.72;5037823;28;20229;-64
2022/06/20 09:51:22;;;;;;;968.17;915.88;;;25.00;99.90;;;25.15;100.00;100393.66;5024144;28;20202;-64
2022/06/20 09:54:37;;;;;;;965.05;913.00;;;25.80;99.90;;;25.65;100.00;100422.63;5024852;28;20681;-64
2022/06/20 09:57:32;;;;;;;947.67;896.20;;;25.40;99.90;;;25.00;100.00;100335.81;5016662;28;20206;-64
2022/06/20 10:00:39;;;;;;;939.60;887.88;;;24.40;99.90;;;24.42;100.00;100354.94;5052090;28;20206;-64
2022/06/20 10:03:38;;;;;;;949.58;898.40;;;;;;;24.64;100.00;100372.78;5035698;28;20222;-64
2022/06/20 10:07:07;;;;;;;961.45;909.08;;;25.60;99.90;;;24.55;100.00;100329.03;5014724;28;20203;-64
2022/06/20 10:10:20;;;;;;;956.70;904.53;;;24.40;99.90;;;24.16;100.00;100301.25;5037312;28;20209;-64
2022/06/20 10:13:37;;;;;;;962.88;910.28;;;24.40;99.90;;;24.01;100.00;100319.06;5032746;28;20214;-64
2022/06/20 10:16:47;;;;;;;958.05;905.78;;;24.00;99.90;;;23.60;100.00;100305.72;5036886;28;20209;-64
2022/06/20 10:20:03;;;;;;;966.58;913.78;;;23.90;99.90;;;23.67;100.00;100309.00;5016840;28;20212;-64
2022/06/20 10:23:07;;;;;;;984.20;930.53;;;24.00;99.90;;;23.75;100.00;100314.91;5027714;28;20591;-64
2022/06/20 10:26:40;;;;;;;975.80;922.60;;;24.10;99.90;;;23.82;100.00;100302.00;5037435;28;20221;-64
2022/06/20 10:30:03;;;;;;;988.88;934.13;;;24.20;99.90;;;24.20;100.00;100338.84;5040501;28;20205;-64
2022/06/20 10:33:17;;;;;;;993.95;939.05;;;24.40;99.90;;;24.56;100.00;100333.50;5016747;28;20225;-64
2022/06/20 10:36:21;;;;;;;1007.28;951.78;;;25.20;99.90;;;24.64;99.31;100294.38;5022794;28;20216;-64
2022/06/20 10:39:25;;;;;;;992.97;938.45;;;24.00;99.90;;;23.86;100.00;100266.69;5022822;28;20205;-64
2022/06/20 10:42:40;;;;;;;996.88;941.17;;;24.10;99.90;;;23.42;100.00;100247.16;5026128;28;20229;-64
2022/06/20 10:45:45;;;;;;;1005.60;947.75;;;23.80;99.90;;;23.44;100.00;100258.75;5036095;28;20213;-64
2022/06/20 10:48:57;;;;;;;1012.33;953.00;;;23.50;99.90;;;23.01;100.00;100223.88;5012288;28;20221;-64
2022/06/20 10:51:54;;;;;;;1005.88;946.20;;;23.40;99.90;;;23.21;100.00;100261.63;5037119;28;20221;-64
2022/06/20 10:54:55;;;;;;;1006.67;949.13;;;23.50;99.90;;;23.20;100.00;100260.75;5010061;28;20224;-65
2022/06/20 10:58:05;;;;;;;1002.10;944.97;;;24.00;99.90;;;23.05;100.00;100269.53;5044053;28;20197;-64
2022/06/20 11:01:13;;;;;;;999.22;941.80;;;23.40;99.90;;;23.01;100.00;100242.75;5042768;28;20220;-64
2022/06/20 11:04:36;;;;;;;994.20;938.92;;;23.40;99.90;;;23.28;100.00;100295.47;5023549;28;20213;-64
2022/06/20 11:07:37;;;;;;;992.03;936.92;;;23.30;99.90;;;23.12;100.00;100283.63;5026658;28;20218;-64
2022/06/20 11:11:02;;;;;;;991.35;936.63;;;23.50;99.90;;;22.98;100.00;100259.97;5009154;28;20204;-64
2022/06/20 11:14:20;;;;;;;985.17;929.97;;;23.90;99.90;;;23.64;97.33;100292.94;5036410;28;20202;-64
2022/06/20 11:17:35;;;;;;;983.15;928.55;;;23.50;99.90;;;23.13;99.27;100261.97;5022011;28;20709;-64
2022/06/20 11:21:11;;;;;;;980.53;926.67;;;23.20;99.90;;;23.01;99.49;100277.81;5036275;28;20209;-64
2022/06/20 11:24:40;;;;;;;982.22;927.72;;;22.80;99.90;;;23.16;98.63;100291.50;4967610;28;20200;-64
2022/06/20 11:27:40;;;;;;;974.88;920.90;;;23.10;99.90;;;22.67;98.95;100239.72;4958599;28;20614;-64
2022/06/20 11:31:12;;;;;;;980.00;925.65;;;22.80;99.90;;;22.45;99.37;100246.97;5027954;28;20198;-64
2022/06/20 11:34:58;;;;;;;980.42;925.83;;;23.10;99.90;;;22.56;99.06;100274.34;5038120;28;20216;-64
2022/06/20 11:38:20;;;;;;;981.03;926.47;;;22.40;99.90;;;21.83;100.00;100222.59;5033679;28;20209;-64
2022/06/20 11:41:37;;;;;;;982.50;927.05;;;21.90;99.90;;;21.42;100.00;100200.03;5051718;28;20584;-64
2022/06/20 11:45:15;;;;;;;961.40;908.38;;;21.50;99.90;;;21.99;100.00;100289.22;5010353;28;20206;-64
2022/06/20 11:48:53;;;;;;;961.75;908.70;;;21.60;99.90;;;21.59;100.00;100251.38;5029567;28;20218;-64
2022/06/20 11:51:57;;;;;;;942.38;891.85;;;21.20;99.90;;;21.28;100.00;100240.91;5035266;28;20225;-64
2022/06/20 11:54:55;;;;;;;938.08;887.25;;;;;;;21.26;100.00;100273.25;5032324;28;20206;-64
2022/06/20 11:58:03;;;;;;;938.33;887.22;;;21.30;99.90;;;21.51;100.00;100293.84;5034717;28;20197;-64
2022/06/20 12:00:55;;;;;;;930.42;879.42;;;21.20;99.90;;;21.13;100.00;100257.59;5029802;28;20205;-64
2022/06/20 12:04:13;;;;;;;929.13;878.35;;;21.00;99.90;;;21.05;100.00;100265.94;5030345;28;20206;-64
2022/06/20 12:07:21;;;;;;;924.38;872.67;;;;;;;21.25;100.00;100281.38;5021089;28;20205;-64
2022/06/20 12:10:26;;;;;;;916.58;865.78;;;21.20;99.90;;;20.71;100.00;100232.19;5030830;28;20194;-64
2022/06/20 12:13:50;;;;;;;911.58;861.58;;;20.90;99.90;;;21.11;100.00;100278.28;5048269;28;20237;-63
2022/06/20 12:16:55;;;;;;;915.63;863.85;;;21.10;99.90;;;21.39;97.40;100289.78;5039087;28;20190;-64
2022/06/20 12:23:46;;;;;;;917.92;866.20;;;21.90;99.90;;;21.98;92.97;100276.69;5044081;28;20237;-64
2022/06/20 12:26:39;;;;;;;914.67;864.35;;;22.20;99.90;;;21.92;93.73;100281.44;5033014;28;20203;-64